sensor_id;sensor_type;location;lat;lon;timestamp;P1;durP1;ratioP1;P2;durP2;ratioP2
73642;SDS011;61938;48.652;9.292;2022-09-13T00:00:28;5.80;;;2.47;;
73642;SDS011;61938;48.652;9.292;2022-09-13T00:02:54;6.43;;;2.78;;
73642;SDS011;61938;48.652;9.292;2022-09-13T00:05:20;7.72;;;2.65;;
73642;SDS011;61938;48.652;9.292;2022-09-13T00:07:47;3.85;;;2.42;;
73642;SDS011;61938;48.652;9.292;2022-09-13T00:10:12;3.00;;;2.38;;
73642;SDS011;61938;48.652;9.292;2022-09-13T00:12:38;4.18;;;2.55;;
73642;SDS011;61938;48.652;9.292;2022-09-13T00:15:04;4.97;;;2.60;;
73642;SDS011;61938;48.652;9.292;2022-09-13T00:17:30;4.80;;;2.83;;
73642;SDS011;61938;48.652;9.292;2022-09-13T00:19:56;6.03;;;2.95;;
73642;SDS011;61938;48.652;9.292;2022-09-13T00:22:22;6.30;;;3.30;;
73642;SDS011;61938;48.652;9.292;2022-09-13T00:24:48;7.15;;;3.20;;
73642;SDS011;61938;48.652;9.292;2022-09-13T00:27:13;3.92;;;2.80;;
73642;SDS011;61938;48.652;9.292;2022-09-13T00:29:39;6.90;;;3.28;;
73642;SDS011;61938;48.652;9.292;2022-09-13T00:32:05;6.25;;;3.03;;
73642;SDS011;61938;48.652;9.292;2022-09-13T00:34:30;5.20;;;3.60;;
73642;SDS011;61938;48.652;9.292;2022-09-13T00:36:56;5.85;;;3.42;;
73642;SDS011;61938;48.652;9.292;2022-09-13T00:39:22;5.22;;;2.95;;
73642;SDS011;61938;48.652;9.292;2022-09-13T00:41:47;4.03;;;2.75;;
73642;SDS011;61938;48.652;9.292;2022-09-13T00:47:21;8.38;;;2.80;;
73642;SDS011;61938;48.652;9.292;2022-09-13T00:50:11;7.60;;;3.35;;
73642;SDS011;61938;48.652;9.292;2022-09-13T00:52:54;6.47;;;3.42;;
73642;SDS011;61938;48.652;9.292;2022-09-13T00:55:52;8.75;;;2.75;;
73642;SDS011;61938;48.652;9.292;2022-09-13T00:58:27;5.50;;;3.03;;
73642;SDS011;61938;48.652;9.292;2022-09-13T01:00:58;4.30;;;3.30;;
73642;SDS011;61938;48.652;9.292;2022-09-13T01:03:27;5.80;;;3.42;;
73642;SDS011;61938;48.652;9.292;2022-09-13T01:08:57;4.23;;;2.80;;
73642;SDS011;61938;48.652;9.292;2022-09-13T01:14:14;6.07;;;2.70;;
73642;SDS011;61938;48.652;9.292;2022-09-13T01:16:42;5.72;;;3.97;;
73642;SDS011;61938;48.652;9.292;2022-09-13T01:19:08;5.45;;;3.13;;
73642;SDS011;61938;48.652;9.292;2022-09-13T01:21:43;6.05;;;3.83;;
73642;SDS011;61938;48.652;9.292;2022-09-13T01:30:55;5.18;;;3.38;;
73642;SDS011;61938;48.652;9.292;2022-09-13T01:33:38;8.18;;;3.20;;
73642;SDS011;61938;48.652;9.292;2022-09-13T01:37:19;3.65;;;2.60;;
73642;SDS011;61938;48.652;9.292;2022-09-13T01:42:06;4.18;;;3.20;;
73642;SDS011;61938;48.652;9.292;2022-09-13T01:45:09;5.72;;;3.22;;
73642;SDS011;61938;48.652;9.292;2022-09-13T01:50:38;5.47;;;3.50;;
73642;SDS011;61938;48.652;9.292;2022-09-13T01:56:21;9.00;;;3.75;;
73642;SDS011;61938;48.652;9.292;2022-09-13T01:59:13;6.18;;;3.78;;
73642;SDS011;61938;48.652;9.292;2022-09-13T02:01:56;12.75;;;3.80;;
73642;SDS011;61938;48.652;9.292;2022-09-13T02:04:27;5.07;;;3.22;;
73642;SDS011;61938;48.652;9.292;2022-09-13T02:09:27;6.70;;;3.30;;
73642;SDS011;61938;48.652;9.292;2022-09-13T02:12:03;5.00;;;3.25;;
73642;SDS011;61938;48.652;9.292;2022-09-13T02:14:52;8.75;;;3.67;;
73642;SDS011;61938;48.652;9.292;2022-09-13T02:17:27;9.48;;;3.50;;
73642;SDS011;61938;48.652;9.292;2022-09-13T02:19:59;5.53;;;3.67;;
73642;SDS011;61938;48.652;9.292;2022-09-13T02:22:29;8.82;;;3.20;;
73642;SDS011;61938;48.652;9.292;2022-09-13T02:25:00;4.78;;;3.08;;
73642;SDS011;61938;48.652;9.292;2022-09-13T02:27:31;5.18;;;3.63;;
73642;SDS011;61938;48.652;9.292;2022-09-13T02:30:06;6.07;;;3.70;;
73642;SDS011;61938;48.652;9.292;2022-09-13T02:32:35;6.45;;;3.63;;
73642;SDS011;61938;48.652;9.292;2022-09-13T02:35:06;6.78;;;3.97;;
73642;SDS011;61938;48.652;9.292;2022-09-13T02:38:09;4.50;;;3.20;;
73642;SDS011;61938;48.652;9.292;2022-09-13T02:40:42;6.75;;;3.85;;
73642;SDS011;61938;48.652;9.292;2022-09-13T02:43:14;5.97;;;3.90;;
73642;SDS011;61938;48.652;9.292;2022-09-13T02:46:49;7.80;;;3.95;;
73642;SDS011;61938;48.652;9.292;2022-09-13T02:56:58;5.20;;;3.75;;
73642;SDS011;61938;48.652;9.292;2022-09-13T02:59:32;5.32;;;3.55;;
73642;SDS011;61938;48.652;9.292;2022-09-13T03:02:02;6.18;;;3.65;;
73642;SDS011;61938;48.652;9.292;2022-09-13T03:04:32;4.93;;;3.45;;
73642;SDS011;61938;48.652;9.292;2022-09-13T03:06:58;5.10;;;3.67;;
73642;SDS011;61938;48.652;9.292;2022-09-13T03:09:25;8.85;;;4.00;;
73642;SDS011;61938;48.652;9.292;2022-09-13T03:14:39;5.97;;;3.58;;
73642;SDS011;61938;48.652;9.292;2022-09-13T03:17:29;8.60;;;3.47;;
73642;SDS011;61938;48.652;9.292;2022-09-13T03:20:05;7.00;;;3.63;;
73642;SDS011;61938;48.652;9.292;2022-09-13T03:22:54;6.18;;;3.58;;
73642;SDS011;61938;48.652;9.292;2022-09-13T03:28:51;5.55;;;3.58;;
73642;SDS011;61938;48.652;9.292;2022-09-13T03:31:19;8.75;;;4.18;;
73642;SDS011;61938;48.652;9.292;2022-09-13T03:34:03;6.70;;;3.70;;
73642;SDS011;61938;48.652;9.292;2022-09-13T03:41:50;11.13;;;3.67;;
73642;SDS011;61938;48.652;9.292;2022-09-13T03:44:20;9.38;;;4.20;;
73642;SDS011;61938;48.652;9.292;2022-09-13T03:46:49;6.07;;;3.85;;
73642;SDS011;61938;48.652;9.292;2022-09-13T03:51:47;5.25;;;3.53;;
73642;SDS011;61938;48.652;9.292;2022-09-13T03:59:32;10.68;;;3.95;;
73642;SDS011;61938;48.652;9.292;2022-09-13T04:02:00;5.85;;;3.40;;
73642;SDS011;61938;48.652;9.292;2022-09-13T04:04:27;6.43;;;3.80;;
73642;SDS011;61938;48.652;9.292;2022-09-13T04:06:52;5.32;;;3.75;;
73642;SDS011;61938;48.652;9.292;2022-09-13T04:09:20;6.57;;;3.83;;
73642;SDS011;61938;48.652;9.292;2022-09-13T04:11:46;9.52;;;3.95;;
73642;SDS011;61938;48.652;9.292;2022-09-13T04:14:12;5.07;;;3.33;;
73642;SDS011;61938;48.652;9.292;2022-09-13T04:16:40;8.57;;;4.05;;
73642;SDS011;61938;48.652;9.292;2022-09-13T04:19:06;10.27;;;4.32;;
73642;SDS011;61938;48.652;9.292;2022-09-13T04:21:32;4.75;;;3.65;;
73642;SDS011;61938;48.652;9.292;2022-09-13T04:23:58;12.40;;;4.30;;
73642;SDS011;61938;48.652;9.292;2022-09-13T04:26:23;6.35;;;4.28;;
73642;SDS011;61938;48.652;9.292;2022-09-13T04:28:51;7.28;;;4.57;;
73642;SDS011;61938;48.652;9.292;2022-09-13T04:31:17;6.07;;;4.53;;
73642;SDS011;61938;48.652;9.292;2022-09-13T04:33:43;6.25;;;4.32;;
73642;SDS011;61938;48.652;9.292;2022-09-13T04:36:08;7.75;;;4.40;;
73642;SDS011;61938;48.652;9.292;2022-09-13T04:38:34;10.38;;;4.32;;
73642;SDS011;61938;48.652;9.292;2022-09-13T04:41:01;6.78;;;4.00;;
73642;SDS011;61938;48.652;9.292;2022-09-13T04:43:27;7.38;;;4.50;;
73642;SDS011;61938;48.652;9.292;2022-09-13T04:45:52;8.95;;;4.13;;
73642;SDS011;61938;48.652;9.292;2022-09-13T04:48:18;9.60;;;4.43;;
73642;SDS011;61938;48.652;9.292;2022-09-13T04:50:44;8.02;;;4.50;;
73642;SDS011;61938;48.652;9.292;2022-09-13T04:53:10;6.95;;;4.25;;
73642;SDS011;61938;48.652;9.292;2022-09-13T04:55:36;7.95;;;4.45;;
73642;SDS011;61938;48.652;9.292;2022-09-13T04:58:02;6.95;;;4.47;;
73642;SDS011;61938;48.652;9.292;2022-09-13T05:00:29;7.80;;;4.32;;
73642;SDS011;61938;48.652;9.292;2022-09-13T05:02:55;10.98;;;4.15;;
73642;SDS011;61938;48.652;9.292;2022-09-13T05:05:22;18.73;;;5.32;;
73642;SDS011;61938;48.652;9.292;2022-09-13T05:07:50;15.65;;;4.97;;
73642;SDS011;61938;48.652;9.292;2022-09-13T05:10:16;8.30;;;3.95;;
73642;SDS011;61938;48.652;9.292;2022-09-13T05:12:42;5.50;;;3.85;;
73642;SDS011;61938;48.652;9.292;2022-09-13T05:15:09;7.60;;;4.60;;
73642;SDS011;61938;48.652;9.292;2022-09-13T05:17:36;5.53;;;3.85;;
73642;SDS011;61938;48.652;9.292;2022-09-13T05:20:02;9.85;;;4.40;;
73642;SDS011;61938;48.652;9.292;2022-09-13T05:22:29;9.75;;;4.68;;
73642;SDS011;61938;48.652;9.292;2022-09-13T05:24:55;9.18;;;4.47;;
73642;SDS011;61938;48.652;9.292;2022-09-13T05:27:21;7.43;;;3.88;;
73642;SDS011;61938;48.652;9.292;2022-09-13T05:29:47;5.97;;;4.05;;
73642;SDS011;61938;48.652;9.292;2022-09-13T05:32:13;7.65;;;4.28;;
73642;SDS011;61938;48.652;9.292;2022-09-13T05:34:38;11.85;;;4.40;;
73642;SDS011;61938;48.652;9.292;2022-09-13T05:37:05;9.70;;;4.32;;
73642;SDS011;61938;48.652;9.292;2022-09-13T05:39:31;7.45;;;4.05;;
73642;SDS011;61938;48.652;9.292;2022-09-13T05:41:57;6.45;;;4.63;;
73642;SDS011;61938;48.652;9.292;2022-09-13T05:44:22;10.68;;;4.38;;
73642;SDS011;61938;48.652;9.292;2022-09-13T05:46:48;10.85;;;4.10;;
73642;SDS011;61938;48.652;9.292;2022-09-13T05:49:14;7.40;;;4.15;;
73642;SDS011;61938;48.652;9.292;2022-09-13T05:51:40;9.88;;;4.15;;
73642;SDS011;61938;48.652;9.292;2022-09-13T05:54:06;9.02;;;4.45;;
73642;SDS011;61938;48.652;9.292;2022-09-13T05:56:32;6.80;;;4.18;;
73642;SDS011;61938;48.652;9.292;2022-09-13T05:58:58;8.65;;;4.18;;
73642;SDS011;61938;48.652;9.292;2022-09-13T06:01:24;8.95;;;4.63;;
73642;SDS011;61938;48.652;9.292;2022-09-13T06:03:52;7.90;;;4.50;;
73642;SDS011;61938;48.652;9.292;2022-09-13T06:06:19;9.30;;;4.57;;
73642;SDS011;61938;48.652;9.292;2022-09-13T06:08:46;13.98;;;5.03;;
73642;SDS011;61938;48.652;9.292;2022-09-13T06:11:13;10.18;;;4.50;;
73642;SDS011;61938;48.652;9.292;2022-09-13T06:13:39;7.25;;;4.97;;
73642;SDS011;61938;48.652;9.292;2022-09-13T06:16:10;11.63;;;4.97;;
73642;SDS011;61938;48.652;9.292;2022-09-13T06:18:37;8.95;;;4.47;;
73642;SDS011;61938;48.652;9.292;2022-09-13T06:21:14;10.07;;;4.80;;
73642;SDS011;61938;48.652;9.292;2022-09-13T06:23:49;11.40;;;4.28;;
73642;SDS011;61938;48.652;9.292;2022-09-13T06:26:17;7.75;;;4.18;;
73642;SDS011;61938;48.652;9.292;2022-09-13T06:28:48;10.43;;;4.65;;
73642;SDS011;61938;48.652;9.292;2022-09-13T06:31:16;7.00;;;4.20;;
73642;SDS011;61938;48.652;9.292;2022-09-13T06:33:43;7.05;;;4.40;;
73642;SDS011;61938;48.652;9.292;2022-09-13T06:36:13;10.48;;;3.85;;
73642;SDS011;61938;48.652;9.292;2022-09-13T06:38:47;9.40;;;4.60;;
73642;SDS011;61938;48.652;9.292;2022-09-13T06:41:14;12.63;;;4.82;;
73642;SDS011;61938;48.652;9.292;2022-09-13T06:43:45;5.03;;;4.18;;
73642;SDS011;61938;48.652;9.292;2022-09-13T06:46:12;7.25;;;4.20;;
73642;SDS011;61938;48.652;9.292;2022-09-13T06:48:40;9.02;;;4.97;;
73642;SDS011;61938;48.652;9.292;2022-09-13T06:51:14;7.57;;;4.38;;
73642;SDS011;61938;48.652;9.292;2022-09-13T06:53:42;7.03;;;4.50;;
73642;SDS011;61938;48.652;9.292;2022-09-13T06:56:10;7.40;;;4.95;;
73642;SDS011;61938;48.652;9.292;2022-09-13T06:58:42;6.05;;;4.05;;
73642;SDS011;61938;48.652;9.292;2022-09-13T07:03:41;8.40;;;5.10;;
73642;SDS011;61938;48.652;9.292;2022-09-13T07:06:10;9.57;;;4.55;;
73642;SDS011;61938;48.652;9.292;2022-09-13T07:08:41;17.48;;;4.45;;
73642;SDS011;61938;48.652;9.292;2022-09-13T07:11:08;9.00;;;3.80;;
73642;SDS011;61938;48.652;9.292;2022-09-13T07:13:35;5.68;;;4.30;;
73642;SDS011;61938;48.652;9.292;2022-09-13T07:16:05;6.22;;;3.75;;
73642;SDS011;61938;48.652;9.292;2022-09-13T07:18:33;8.77;;;3.80;;
73642;SDS011;61938;48.652;9.292;2022-09-13T07:21:00;9.55;;;4.50;;
73642;SDS011;61938;48.652;9.292;2022-09-13T07:23:28;10.98;;;4.25;;
73642;SDS011;61938;48.652;9.292;2022-09-13T07:25:55;7.95;;;4.18;;
73642;SDS011;61938;48.652;9.292;2022-09-13T07:28:26;10.93;;;3.60;;
73642;SDS011;61938;48.652;9.292;2022-09-13T07:30:53;6.13;;;3.55;;
73642;SDS011;61938;48.652;9.292;2022-09-13T07:33:19;8.60;;;3.70;;
73642;SDS011;61938;48.652;9.292;2022-09-13T07:35:45;10.38;;;3.60;;
73642;SDS011;61938;48.652;9.292;2022-09-13T07:38:11;9.30;;;3.90;;
73642;SDS011;61938;48.652;9.292;2022-09-13T07:40:36;8.63;;;3.72;;
73642;SDS011;61938;48.652;9.292;2022-09-13T07:43:02;10.23;;;3.25;;
73642;SDS011;61938;48.652;9.292;2022-09-13T07:45:28;7.78;;;3.38;;
73642;SDS011;61938;48.652;9.292;2022-09-13T07:47:54;5.28;;;3.47;;
73642;SDS011;61938;48.652;9.292;2022-09-13T07:50:20;4.28;;;3.05;;
73642;SDS011;61938;48.652;9.292;2022-09-13T07:52:45;5.82;;;3.35;;
73642;SDS011;61938;48.652;9.292;2022-09-13T07:55:11;4.85;;;3.22;;
73642;SDS011;61938;48.652;9.292;2022-09-13T07:57:37;6.18;;;2.78;;
73642;SDS011;61938;48.652;9.292;2022-09-13T08:00:02;4.45;;;2.75;;
73642;SDS011;61938;48.652;9.292;2022-09-13T08:02:29;9.65;;;2.90;;
73642;SDS011;61938;48.652;9.292;2022-09-13T08:04:55;5.53;;;2.38;;
73642;SDS011;61938;48.652;9.292;2022-09-13T08:07:20;10.15;;;3.15;;
73642;SDS011;61938;48.652;9.292;2022-09-13T08:09:46;8.48;;;2.67;;
73642;SDS011;61938;48.652;9.292;2022-09-13T08:12:12;5.65;;;2.75;;
73642;SDS011;61938;48.652;9.292;2022-09-13T08:14:37;6.43;;;2.88;;
73642;SDS011;61938;48.652;9.292;2022-09-13T08:17:03;5.45;;;2.63;;
73642;SDS011;61938;48.652;9.292;2022-09-13T08:19:30;4.22;;;2.35;;
73642;SDS011;61938;48.652;9.292;2022-09-13T08:21:56;3.95;;;2.67;;
73642;SDS011;61938;48.652;9.292;2022-09-13T08:24:22;6.45;;;2.45;;
73642;SDS011;61938;48.652;9.292;2022-09-13T08:26:47;8.32;;;3.00;;
73642;SDS011;61938;48.652;9.292;2022-09-13T08:29:15;9.55;;;3.13;;
73642;SDS011;61938;48.652;9.292;2022-09-13T08:31:41;9.50;;;2.50;;
73642;SDS011;61938;48.652;9.292;2022-09-13T08:34:11;5.38;;;2.35;;
73642;SDS011;61938;48.652;9.292;2022-09-13T08:36:39;2.97;;;2.33;;
73642;SDS011;61938;48.652;9.292;2022-09-13T08:39:05;5.13;;;2.20;;
73642;SDS011;61938;48.652;9.292;2022-09-13T08:46:52;6.57;;;2.33;;
73642;SDS011;61938;48.652;9.292;2022-09-13T08:49:35;9.18;;;2.25;;
73642;SDS011;61938;48.652;9.292;2022-09-13T08:54:56;9.30;;;2.35;;
73642;SDS011;61938;48.652;9.292;2022-09-13T09:03:29;6.65;;;2.28;;
73642;SDS011;61938;48.652;9.292;2022-09-13T09:05:46;3.17;;;1.70;;
73642;SDS011;61938;48.652;9.292;2022-09-13T09:10:45;3.28;;;2.13;;
73642;SDS011;61938;48.652;9.292;2022-09-13T09:15:47;3.28;;;1.95;;
73642;SDS011;61938;48.652;9.292;2022-09-13T09:18:23;4.65;;;1.67;;
73642;SDS011;61938;48.652;9.292;2022-09-13T09:20:54;7.25;;;1.92;;
73642;SDS011;61938;48.652;9.292;2022-09-13T09:23:23;7.60;;;2.03;;
73642;SDS011;61938;48.652;9.292;2022-09-13T09:26:12;15.93;;;2.17;;
73642;SDS011;61938;48.652;9.292;2022-09-13T09:28:42;3.42;;;1.80;;
73642;SDS011;61938;48.652;9.292;2022-09-13T09:34:11;3.00;;;1.42;;
73642;SDS011;61938;48.652;9.292;2022-09-13T09:39:09;7.03;;;2.05;;
73642;SDS011;61938;48.652;9.292;2022-09-13T09:41:37;5.25;;;1.70;;
73642;SDS011;61938;48.652;9.292;2022-09-13T09:46:54;6.28;;;2.42;;
73642;SDS011;61938;48.652;9.292;2022-09-13T09:52:50;4.75;;;1.60;;
73642;SDS011;61938;48.652;9.292;2022-09-13T09:55:31;5.30;;;1.50;;
73642;SDS011;61938;48.652;9.292;2022-09-13T09:58:14;2.38;;;1.40;;
73642;SDS011;61938;48.652;9.292;2022-09-13T10:03:29;2.55;;;1.63;;
73642;SDS011;61938;48.652;9.292;2022-09-13T10:08:39;3.20;;;1.50;;
73642;SDS011;61938;48.652;9.292;2022-09-13T10:11:07;1.83;;;1.30;;
73642;SDS011;61938;48.652;9.292;2022-09-13T10:13:33;2.80;;;1.30;;
73642;SDS011;61938;48.652;9.292;2022-09-13T10:16:06;2.25;;;1.73;;
73642;SDS011;61938;48.652;9.292;2022-09-13T10:18:50;6.32;;;1.40;;
73642;SDS011;61938;48.652;9.292;2022-09-13T10:23:42;2.90;;;1.73;;
73642;SDS011;61938;48.652;9.292;2022-09-13T10:26:09;2.60;;;1.50;;
73642;SDS011;61938;48.652;9.292;2022-09-13T10:31:11;4.47;;;1.40;;
73642;SDS011;61938;48.652;9.292;2022-09-13T10:36:31;6.28;;;1.52;;
73642;SDS011;61938;48.652;9.292;2022-09-13T10:39:00;3.00;;;1.63;;
73642;SDS011;61938;48.652;9.292;2022-09-13T10:41:29;3.00;;;1.60;;
73642;SDS011;61938;48.652;9.292;2022-09-13T10:44:03;3.78;;;1.20;;
73642;SDS011;61938;48.652;9.292;2022-09-13T10:46:32;7.95;;;1.45;;
73642;SDS011;61938;48.652;9.292;2022-09-13T10:49:01;5.50;;;1.42;;
73642;SDS011;61938;48.652;9.292;2022-09-13T10:54:07;4.75;;;1.15;;
73642;SDS011;61938;48.652;9.292;2022-09-13T10:56:39;8.05;;;1.17;;
73642;SDS011;61938;48.652;9.292;2022-09-13T11:04:45;2.65;;;0.80;;
73642;SDS011;61938;48.652;9.292;2022-09-13T11:19:04;0.98;;;0.88;;
73642;SDS011;61938;48.652;9.292;2022-09-13T11:21:41;1.30;;;0.85;;
73642;SDS011;61938;48.652;9.292;2022-09-13T11:27:28;2.42;;;0.90;;
73642;SDS011;61938;48.652;9.292;2022-09-13T11:30:17;1.20;;;0.88;;
73642;SDS011;61938;48.652;9.292;2022-09-13T11:35:42;4.80;;;0.85;;
73642;SDS011;61938;48.652;9.292;2022-09-13T11:46:58;1.42;;;0.85;;
73642;SDS011;61938;48.652;9.292;2022-09-13T11:57:54;4.15;;;0.98;;
73642;SDS011;61938;48.652;9.292;2022-09-13T12:00:30;1.05;;;0.70;;
73642;SDS011;61938;48.652;9.292;2022-09-13T12:05:46;4.18;;;0.82;;
73642;SDS011;61938;48.652;9.292;2022-09-13T12:08:23;1.80;;;0.95;;
73642;SDS011;61938;48.652;9.292;2022-09-13T12:13:25;3.60;;;0.93;;
73642;SDS011;61938;48.652;9.292;2022-09-13T12:15:58;2.00;;;1.00;;
73642;SDS011;61938;48.652;9.292;2022-09-13T12:18:37;3.03;;;0.68;;
73642;SDS011;61938;48.652;9.292;2022-09-13T12:21:13;1.10;;;0.50;;
73642;SDS011;61938;48.652;9.292;2022-09-13T12:27:05;0.43;;;0.43;;
73642;SDS011;61938;48.652;9.292;2022-09-13T12:29:50;1.38;;;0.60;;
73642;SDS011;61938;48.652;9.292;2022-09-13T12:32:36;0.95;;;0.68;;
73642;SDS011;61938;48.652;9.292;2022-09-13T12:43:18;1.10;;;0.50;;
73642;SDS011;61938;48.652;9.292;2022-09-13T12:51:34;1.27;;;0.57;;
73642;SDS011;61938;48.652;9.292;2022-09-13T12:56:56;0.70;;;0.50;;
73642;SDS011;61938;48.652;9.292;2022-09-13T13:04:55;1.95;;;0.60;;
73642;SDS011;61938;48.652;9.292;2022-09-13T13:07:42;0.82;;;0.40;;
73642;SDS011;61938;48.652;9.292;2022-09-13T13:10:31;0.30;;;0.30;;
73642;SDS011;61938;48.652;9.292;2022-09-13T13:18:26;0.60;;;0.40;;
73642;SDS011;61938;48.652;9.292;2022-09-13T13:39:09;8.65;;;1.35;;
73642;SDS011;61938;48.652;9.292;2022-09-13T13:46:51;0.68;;;0.60;;
73642;SDS011;61938;48.652;9.292;2022-09-13T13:55:04;4.75;;;0.90;;
73642;SDS011;61938;48.652;9.292;2022-09-13T14:01:10;5.45;;;0.88;;
73642;SDS011;61938;48.652;9.292;2022-09-13T14:07:19;2.35;;;0.90;;
73642;SDS011;61938;48.652;9.292;2022-09-13T14:18:41;1.45;;;0.70;;
73642;SDS011;61938;48.652;9.292;2022-09-13T14:21:22;2.03;;;0.80;;
73642;SDS011;61938;48.652;9.292;2022-09-13T14:23:53;2.03;;;0.77;;
73642;SDS011;61938;48.652;9.292;2022-09-13T14:26:52;3.05;;;0.95;;
73642;SDS011;61938;48.652;9.292;2022-09-13T14:29:22;1.70;;;0.75;;
73642;SDS011;61938;48.652;9.292;2022-09-13T14:31:54;4.82;;;0.88;;
73642;SDS011;61938;48.652;9.292;2022-09-13T14:34:35;1.00;;;0.57;;
73642;SDS011;61938;48.652;9.292;2022-09-13T14:37:04;1.35;;;0.73;;
73642;SDS011;61938;48.652;9.292;2022-09-13T14:39:31;2.33;;;0.73;;
73642;SDS011;61938;48.652;9.292;2022-09-13T14:41:58;1.58;;;0.50;;
73642;SDS011;61938;48.652;9.292;2022-09-13T14:44:27;1.50;;;0.80;;
73642;SDS011;61938;48.652;9.292;2022-09-13T14:49:30;1.00;;;0.65;;
73642;SDS011;61938;48.652;9.292;2022-09-13T14:52:01;3.28;;;1.00;;
73642;SDS011;61938;48.652;9.292;2022-09-13T14:57:06;5.10;;;0.90;;
73642;SDS011;61938;48.652;9.292;2022-09-13T14:59:46;4.80;;;0.90;;
73642;SDS011;61938;48.652;9.292;2022-09-13T15:02:16;4.63;;;0.82;;
73642;SDS011;61938;48.652;9.292;2022-09-13T15:04:55;4.68;;;0.98;;
73642;SDS011;61938;48.652;9.292;2022-09-13T15:09:57;2.80;;;0.98;;
73642;SDS011;61938;48.652;9.292;2022-09-13T15:12:31;2.80;;;1.00;;
73642;SDS011;61938;48.652;9.292;2022-09-13T15:17:53;1.50;;;0.82;;
73642;SDS011;61938;48.652;9.292;2022-09-13T15:20:20;3.05;;;1.02;;
73642;SDS011;61938;48.652;9.292;2022-09-13T15:22:48;5.65;;;0.90;;
73642;SDS011;61938;48.652;9.292;2022-09-13T15:25:22;4.22;;;1.17;;
73642;SDS011;61938;48.652;9.292;2022-09-13T15:27:53;8.13;;;1.60;;
73642;SDS011;61938;48.652;9.292;2022-09-13T15:36:21;4.05;;;1.10;;
73642;SDS011;61938;48.652;9.292;2022-09-13T15:39:12;4.32;;;1.30;;
73642;SDS011;61938;48.652;9.292;2022-09-13T15:41:51;6.60;;;1.00;;
73642;SDS011;61938;48.652;9.292;2022-09-13T15:44:22;2.17;;;1.30;;
73642;SDS011;61938;48.652;9.292;2022-09-13T15:46:50;4.80;;;1.13;;
73642;SDS011;61938;48.652;9.292;2022-09-13T15:49:17;4.80;;;1.25;;
73642;SDS011;61938;48.652;9.292;2022-09-13T15:51:52;2.58;;;1.15;;
73642;SDS011;61938;48.652;9.292;2022-09-13T15:54:30;5.10;;;0.90;;
73642;SDS011;61938;48.652;9.292;2022-09-13T15:56:57;1.77;;;1.20;;
73642;SDS011;61938;48.652;9.292;2022-09-13T15:59:23;2.20;;;1.15;;
73642;SDS011;61938;48.652;9.292;2022-09-13T16:01:50;4.28;;;1.52;;
73642;SDS011;61938;48.652;9.292;2022-09-13T16:04:16;12.10;;;1.63;;
73642;SDS011;61938;48.652;9.292;2022-09-13T16:06:43;3.80;;;0.90;;
73642;SDS011;61938;48.652;9.292;2022-09-13T16:09:19;2.05;;;1.00;;
73642;SDS011;61938;48.652;9.292;2022-09-13T16:11:47;4.88;;;1.67;;
73642;SDS011;61938;48.652;9.292;2022-09-13T16:14:15;3.28;;;1.20;;
73642;SDS011;61938;48.652;9.292;2022-09-13T16:16:41;2.85;;;1.13;;
73642;SDS011;61938;48.652;9.292;2022-09-13T16:19:15;7.80;;;0.98;;
73642;SDS011;61938;48.652;9.292;2022-09-13T16:21:46;2.80;;;1.38;;
73642;SDS011;61938;48.652;9.292;2022-09-13T16:24:13;7.28;;;1.13;;
73642;SDS011;61938;48.652;9.292;2022-09-13T16:26:39;3.80;;;1.10;;
73642;SDS011;61938;48.652;9.292;2022-09-13T16:29:05;3.58;;;1.45;;
73642;SDS011;61938;48.652;9.292;2022-09-13T16:31:32;7.93;;;1.13;;
73642;SDS011;61938;48.652;9.292;2022-09-13T16:33:58;4.13;;;1.40;;
73642;SDS011;61938;48.652;9.292;2022-09-13T16:36:23;4.28;;;1.65;;
73642;SDS011;61938;48.652;9.292;2022-09-13T16:38:52;7.53;;;1.70;;
73642;SDS011;61938;48.652;9.292;2022-09-13T16:41:19;1.30;;;1.00;;
73642;SDS011;61938;48.652;9.292;2022-09-13T16:43:44;2.70;;;1.50;;
73642;SDS011;61938;48.652;9.292;2022-09-13T16:46:10;5.32;;;1.45;;
73642;SDS011;61938;48.652;9.292;2022-09-13T16:48:37;3.70;;;1.52;;
73642;SDS011;61938;48.652;9.292;2022-09-13T16:53:34;4.35;;;1.30;;
73642;SDS011;61938;48.652;9.292;2022-09-13T16:58:31;7.38;;;1.50;;
73642;SDS011;61938;48.652;9.292;2022-09-13T17:00:59;10.38;;;1.70;;
73642;SDS011;61938;48.652;9.292;2022-09-13T17:03:27;3.95;;;1.80;;
73642;SDS011;61938;48.652;9.292;2022-09-13T17:05:56;2.92;;;1.40;;
73642;SDS011;61938;48.652;9.292;2022-09-13T17:08:23;4.43;;;2.08;;
73642;SDS011;61938;48.652;9.292;2022-09-13T17:10:49;2.50;;;1.50;;
73642;SDS011;61938;48.652;9.292;2022-09-13T17:13:14;3.80;;;1.52;;
73642;SDS011;61938;48.652;9.292;2022-09-13T17:15:40;2.70;;;1.60;;
73642;SDS011;61938;48.652;9.292;2022-09-13T17:18:06;2.60;;;1.60;;
73642;SDS011;61938;48.652;9.292;2022-09-13T17:20:32;7.57;;;1.83;;
73642;SDS011;61938;48.652;9.292;2022-09-13T17:22:58;4.75;;;1.70;;
73642;SDS011;61938;48.652;9.292;2022-09-13T17:25:24;4.30;;;1.45;;
73642;SDS011;61938;48.652;9.292;2022-09-13T17:27:50;3.83;;;2.08;;
73642;SDS011;61938;48.652;9.292;2022-09-13T17:30:16;6.75;;;1.63;;
73642;SDS011;61938;48.652;9.292;2022-09-13T17:32:42;6.35;;;2.13;;
73642;SDS011;61938;48.652;9.292;2022-09-13T17:35:08;3.20;;;1.50;;
73642;SDS011;61938;48.652;9.292;2022-09-13T17:37:35;4.68;;;1.85;;
73642;SDS011;61938;48.652;9.292;2022-09-13T17:40:02;6.43;;;1.88;;
73642;SDS011;61938;48.652;9.292;2022-09-13T17:42:28;3.80;;;1.80;;
73642;SDS011;61938;48.652;9.292;2022-09-13T17:44:53;2.00;;;1.65;;
73642;SDS011;61938;48.652;9.292;2022-09-13T17:47:19;4.97;;;1.88;;
73642;SDS011;61938;48.652;9.292;2022-09-13T17:49:45;7.55;;;2.13;;
73642;SDS011;61938;48.652;9.292;2022-09-13T17:52:11;9.05;;;1.90;;
73642;SDS011;61938;48.652;9.292;2022-09-13T17:54:37;3.30;;;1.60;;
73642;SDS011;61938;48.652;9.292;2022-09-13T17:57:03;2.60;;;1.50;;
73642;SDS011;61938;48.652;9.292;2022-09-13T17:59:29;2.85;;;1.40;;
73642;SDS011;61938;48.652;9.292;2022-09-13T18:01:56;3.33;;;1.63;;
73642;SDS011;61938;48.652;9.292;2022-09-13T18:04:24;3.40;;;1.70;;
73642;SDS011;61938;48.652;9.292;2022-09-13T18:06:51;5.57;;;1.50;;
73642;SDS011;61938;48.652;9.292;2022-09-13T18:09:17;4.28;;;1.92;;
73642;SDS011;61938;48.652;9.292;2022-09-13T18:11:44;5.10;;;1.70;;
73642;SDS011;61938;48.652;9.292;2022-09-13T18:14:10;6.00;;;1.70;;
73642;SDS011;61938;48.652;9.292;2022-09-13T18:16:40;3.10;;;1.75;;
73642;SDS011;61938;48.652;9.292;2022-09-13T18:19:07;8.38;;;2.13;;
73642;SDS011;61938;48.652;9.292;2022-09-13T18:21:33;7.43;;;1.58;;
73642;SDS011;61938;48.652;9.292;2022-09-13T18:23:59;5.47;;;1.50;;
73642;SDS011;61938;48.652;9.292;2022-09-13T18:26:28;3.17;;;1.50;;
73642;SDS011;61938;48.652;9.292;2022-09-13T18:28:57;2.78;;;1.40;;
73642;SDS011;61938;48.652;9.292;2022-09-13T18:31:26;3.42;;;1.45;;
73642;SDS011;61938;48.652;9.292;2022-09-13T18:33:59;4.70;;;1.90;;
73642;SDS011;61938;48.652;9.292;2022-09-13T18:36:27;3.55;;;1.85;;
73642;SDS011;61938;48.652;9.292;2022-09-13T18:38:54;4.15;;;1.70;;
73642;SDS011;61938;48.652;9.292;2022-09-13T18:41:22;2.47;;;1.55;;
73642;SDS011;61938;48.652;9.292;2022-09-13T18:43:50;2.47;;;1.48;;
73642;SDS011;61938;48.652;9.292;2022-09-13T18:46:18;2.70;;;1.52;;
73642;SDS011;61938;48.652;9.292;2022-09-13T18:48:47;2.65;;;1.80;;
73642;SDS011;61938;48.652;9.292;2022-09-13T18:51:28;9.00;;;1.67;;
73642;SDS011;61938;48.652;9.292;2022-09-13T18:53:55;2.65;;;1.50;;
73642;SDS011;61938;48.652;9.292;2022-09-13T18:56:22;2.45;;;1.65;;
73642;SDS011;61938;48.652;9.292;2022-09-13T18:58:49;3.95;;;1.95;;
73642;SDS011;61938;48.652;9.292;2022-09-13T19:03:57;3.10;;;1.75;;
73642;SDS011;61938;48.652;9.292;2022-09-13T19:06:31;4.20;;;1.90;;
73642;SDS011;61938;48.652;9.292;2022-09-13T19:08:59;3.33;;;1.75;;
73642;SDS011;61938;48.652;9.292;2022-09-13T19:11:26;5.30;;;1.83;;